Bookmark and Share
Track history (hours):
 

Chopin

Last reported at 2014-Apr-16 15:33 UTC. Time now 2014-Apr-16 16:13 UTC.
Position N 53°26' E 004°47'.

Length 104 m; draft 6.1 m.

Type: Cargo ship. MMSI: 236099000.

NotesDate/timePositionNaut miles runAvg speedWind from/ knotsBaromVisibWave heightAir tempDewpointWater temp
2014-Apr-16 15:33N 53°26' E 004°47'10 9.8
2014-Apr-16 14:34N 53°18' E 004°38'1010.1
2014-Apr-16 13:34N 53°09' E 004°30'10 9.9
2014-Apr-16 12:32N 52°60' E 004°22'10 9.7
2014-Apr-16 11:33N 52°51' E 004°15'10 9.6
2014-Apr-16 10:33N 52°43' E 004°06'10 9.6
2014-Apr-16 09:33N 52°36' E 003°54'9 9.4
2014-Apr-16 08:33N 52°30' E 003°43'10 9.6
2014-Apr-16 07:30N 52°22' E 003°32'1010.3
2014-Apr-16 06:33N 52°16' E 003°21'1111.0
2014-Apr-16 05:33N 52°08' E 003°07'4111.9
2014-Apr-16 02:08N 51°37' E 002°25'712.5
2014-Apr-16 01:33N 51°31' E 002°18'1212.1
2014-Apr-16 00:34N 51°21' E 002°07'1110.7
2014-Apr-15 23:33N 51°12' E 001°58'1111.5
2014-Apr-15 22:34N 51°05' E 001°44'1410.5
2014-Apr-15 21:14N 50°55' E 001°29'8 8.8
2014-Apr-15 20:20N 50°47' E 001°24'7 8.5
2014-Apr-15 19:33N 50°41' E 001°20'10 8.8
2014-Apr-15 18:26N 50°34' E 001°09'9 8.7
2014-Apr-15 17:26N 50°28' E 000°59'8 8.9
2014-Apr-15 16:33N 50°26' E 000°47'8 8.4
2014-Apr-15 15:33N 50°24' E 000°34'73 9.1
2014-Apr-15 07:33N 50°05' W 001°15'  
2014-Apr-11 16:23N 38°27' W 009°21'810.1
2014-Apr-11 15:33N 38°22' W 009°12'1010.1
2014-Apr-11 14:33N 38°26' W 009°00'9 8.2
2014-Apr-11 13:30N 38°30' W 008°51'0 0.0
2014-Apr-11 12:18N 38°30' W 008°51'0 0.0
2014-Apr-11 11:33N 38°30' W 008°51'0 0.0
2014-Apr-11 10:33N 38°30' W 008°51'0 0.0
2014-Apr-11 09:33N 38°30' W 008°51'0 0.0
2014-Apr-11 08:33N 38°30' W 008°51'0 0.0
2014-Apr-11 07:33N 38°30' W 008°51'0 0.0
2014-Apr-11 06:33N 38°30' W 008°51'0 0.0
2014-Apr-11 05:33N 38°30' W 008°51'0 0.0
2014-Apr-11 04:33N 38°30' W 008°51'0 0.0
2014-Apr-11 03:27N 38°30' W 008°51'0 0.0
2014-Apr-11 02:27N 38°30' W 008°51'0 0.0
2014-Apr-11 01:30N 38°30' W 008°51'0 0.0
2014-Apr-11 00:33N 38°30' W 008°51'0 0.0
2014-Apr-10 23:27N 38°30' W 008°51'0 0.0
2014-Apr-10 22:33N 38°30' W 008°51'0 0.0
2014-Apr-10 21:33N 38°30' W 008°51'0 0.0
2014-Apr-10 20:30N 38°30' W 008°51'0 0.0
2014-Apr-10 19:27N 38°30' W 008°51'0 0.0
2014-Apr-10 18:30N 38°30' W 008°51'0 0.0
2014-Apr-10 17:30N 38°30' W 008°51'0 0.0
2014-Apr-10 16:30N 38°30' W 008°51'0 0.0
2014-Apr-10 15:27N 38°30' W 008°51'0 0.0
2014-Apr-10 14:33N 38°30' W 008°51'0 0.0
2014-Apr-10 13:33N 38°30' W 008°51'0 0.0
2014-Apr-10 12:24N 38°30' W 008°51'0 0.0
2014-Apr-10 11:33N 38°30' W 008°51'0 0.0
2014-Apr-10 10:30N 38°30' W 008°51'0 0.0
2014-Apr-10 09:27N 38°30' W 008°51'0 0.0
2014-Apr-10 08:33N 38°30' W 008°51'0 0.0
2014-Apr-10 07:33N 38°30' W 008°51'6 6.1
2014-Apr-10 06:34N 38°27' W 008°58'7 6.7
2014-Apr-10 05:33N 38°24' W 009°05'6 5.5
2014-Apr-10 04:33N 38°22' W 009°12'8 8.0
2014-Apr-10 03:33N 38°27' W 009°20'  

Dump ship's entire track history

sailing weather and tide predictions

Chopin — ZDFE4 — position and weather